Time;durP1;ratioP1;P1;durP2;ratioP2;P2;SDS_P1;SDS_P2;PMS_P1;PMS_P2;Temp;Humidity;BMP_temperature;BMP_pressure;BME280_temperature;BME280_humidity;BME280_pressure;Samples;Min_cycle;Max_cycle;Signal;HPM_P1;HPM_P2
2024/01/06 00:03:04;;;;;;;0.52;0.52;;;;;;;5.87;100.00;100397.47;10418010;28;20155;-70
2024/01/06 00:08:05;;;;;;;0.88;0.88;;;;;;;5.85;100.00;100405.75;10416906;28;20025;-71
2024/01/06 00:13:05;;;;;;;2.05;1.95;;;;;;;5.80;100.00;100410.78;10418125;28;20068;-70
2024/01/06 00:18:06;;;;;;;0.50;0.50;;;;;;;5.77;100.00;100417.34;10417683;28;20026;-71
2024/01/06 00:23:06;;;;;;;0.80;0.80;;;;;;;5.79;100.00;100420.72;10417640;28;20065;-72
2024/01/06 00:28:06;;;;;;;4.03;1.65;;;;;;;5.83;100.00;100427.41;10417949;28;20115;-71
2024/01/06 00:33:07;;;;;;;0.50;0.50;;;;;;;5.83;100.00;100421.19;10416218;28;20490;-71
2024/01/06 00:38:07;;;;;;;0.68;0.68;;;;;;;5.76;100.00;100430.97;10412198;28;20098;-71
2024/01/06 00:43:08;;;;;;;0.50;0.50;;;;;;;5.76;100.00;100437.19;10413688;28;20033;-71
2024/01/06 00:48:08;;;;;;;0.52;0.52;;;;;;;5.77;100.00;100435.34;10413962;28;20021;-70
2024/01/06 00:53:08;;;;;;;0.50;0.50;;;;;;;5.77;100.00;100438.03;10415564;28;20445;-71
2024/01/06 00:58:09;;;;;;;0.63;0.63;;;;;;;5.71;100.00;100438.72;10414602;28;20029;-71
2024/01/06 01:03:09;;;;;;;0.50;0.50;;;;;;;5.71;100.00;100457.53;10412497;28;20032;-71
2024/01/06 01:08:10;;;;;;;1.23;1.23;;;;;;;5.73;100.00;100460.88;10413838;28;20147;-71
2024/01/06 01:13:10;;;;;;;2.15;2.05;;;;;;;5.74;100.00;100474.16;10429291;28;20037;-71
2024/01/06 01:18:10;;;;;;;0.60;0.60;;;;;;;5.79;100.00;100479.00;10397360;28;20029;-72
2024/01/06 01:23:11;;;;;;;0.60;0.60;;;;;;;5.79;100.00;100479.81;10413904;28;20101;-71
2024/01/06 01:28:13;;;;;;;1.73;1.73;;;;;;;5.83;100.00;100496.44;10411443;28;20134;-71
2024/01/06 01:33:14;;;;;;;1.50;1.50;;;;;;;5.79;100.00;100500.50;10414558;28;20357;-71
2024/01/06 01:38:15;;;;;;;0.88;0.88;;;;;;;5.81;100.00;100519.97;10414490;28;20449;-71
2024/01/06 01:43:17;;;;;;;1.02;1.02;;;;;;;5.74;100.00;100516.28;10412710;28;20124;-71
2024/01/06 01:48:18;;;;;;;0.40;0.40;;;;;;;5.72;100.00;100537.13;10413994;28;20033;-71
2024/01/06 01:53:18;;;;;;;0.70;0.70;;;;;;;5.61;100.00;100551.78;10421580;28;20034;-71
2024/01/06 01:58:19;;;;;;;0.50;0.50;;;;;;;5.52;100.00;100545.63;10412743;28;20516;-70
2024/01/06 02:03:19;;;;;;;0.50;0.50;;;;;;;5.45;100.00;100544.59;10412612;28;20132;-71
2024/01/06 02:08:19;;;;;;;0.50;0.50;;;;;;;5.36;100.00;100546.50;10412877;28;20334;-70
2024/01/06 02:13:20;;;;;;;0.50;0.50;;;;;;;5.24;100.00;100555.94;10411571;28;20112;-70
2024/01/06 02:18:20;;;;;;;0.65;0.65;;;;;;;5.21;100.00;100555.44;10412022;28;20084;-70
2024/01/06 02:23:21;;;;;;;0.50;0.50;;;;;;;5.18;100.00;100570.03;10411840;28;20082;-70
2024/01/06 02:28:21;;;;;;;0.50;0.50;;;;;;;5.18;100.00;100578.06;10413446;28;20052;-70
2024/01/06 02:33:24;;;;;;;0.50;0.50;;;;;;;5.13;100.00;100578.56;10419773;28;20044;-70
2024/01/06 02:38:24;;;;;;;0.57;0.57;;;;;;;5.09;100.00;100582.63;10444325;28;20094;-70
2024/01/06 02:43:24;;;;;;;0.65;0.65;;;;;;;5.07;100.00;100591.84;10402754;28;20347;-70
2024/01/06 02:48:25;;;;;;;0.60;0.60;;;;;;;5.09;100.00;100608.63;10412370;28;20041;-71
2024/01/06 02:53:25;;;;;;;0.57;0.57;;;;;;;5.10;100.00;100612.97;10413244;28;20038;-70
2024/01/06 02:58:26;;;;;;;0.60;0.60;;;;;;;5.13;100.00;100618.00;10413724;28;20084;-70
2024/01/06 03:03:26;;;;;;;0.60;0.60;;;;;;;5.12;100.00;100622.53;10411904;28;20055;-70
2024/01/06 03:08:27;;;;;;;0.65;0.65;;;;;;;5.09;100.00;100630.94;10411855;28;20175;-70
2024/01/06 03:13:27;;;;;;;0.40;0.40;;;;;;;5.05;100.00;100626.06;10410471;28;20041;-70
2024/01/06 03:18:27;;;;;;;0.45;0.45;;;;;;;5.11;100.00;100631.59;10411798;28;20056;-70
2024/01/06 03:23:28;;;;;;;0.50;0.50;;;;;;;5.15;100.00;100631.25;10411971;28;20342;-70
2024/01/06 03:28:28;;;;;;;0.60;0.60;;;;;;;5.05;100.00;100640.31;10411425;28;20038;-70
2024/01/06 03:33:29;;;;;;;1.60;1.60;;;;;;;5.00;100.00;100649.88;10411477;28;20108;-70
2024/01/06 03:38:29;;;;;;;1.77;1.67;;;;;;;5.00;100.00;100653.41;10411487;28;20056;-71
2024/01/06 03:43:30;;;;;;;0.50;0.50;;;;;;;4.99;100.00;100654.41;10411297;28;20519;-70
2024/01/06 03:48:31;;;;;;;0.57;0.57;;;;;;;4.96;100.00;100657.44;10412029;28;20037;-70
2024/01/06 03:53:32;;;;;;;0.77;0.77;;;;;;;5.01;100.00;100668.50;10410437;28;20033;-70
2024/01/06 03:58:32;;;;;;;0.52;0.52;;;;;;;4.87;100.00;100675.34;10410959;28;20065;-70
2024/01/06 04:03:33;;;;;;;1.05;1.05;;;;;;;4.88;100.00;100674.38;10416718;28;20039;-71
2024/01/06 04:08:33;;;;;;;0.65;0.65;;;;;;;4.86;100.00;100687.09;10410748;28;20099;-70
2024/01/06 04:13:34;;;;;;;0.60;0.60;;;;;;;4.83;100.00;100691.97;10417620;28;20179;-70
2024/01/06 04:18:34;;;;;;;0.65;0.65;;;;;;;4.77;100.00;100703.34;10417640;28;20117;-70
2024/01/06 04:23:34;;;;;;;0.60;0.60;;;;;;;4.75;100.00;100705.34;10417819;28;20326;-70
2024/01/06 04:28:35;;;;;;;2.08;1.98;;;;;;;4.70;100.00;100719.25;10416614;28;20076;-70
2024/01/06 04:33:36;;;;;;;0.63;0.63;;;;;;;4.68;100.00;100718.56;10417726;28;20112;-70
2024/01/06 04:38:37;;;;;;;0.40;0.40;;;;;;;4.69;100.00;100717.59;10417218;28;20037;-70
2024/01/06 04:43:37;;;;;;;0.60;0.60;;;;;;;4.64;100.00;100714.56;10417165;28;20037;-70
2024/01/06 04:48:40;;;;;;;1.15;1.15;;;;;;;4.55;100.00;100719.03;10416493;28;20022;-70
2024/01/06 04:53:40;;;;;;;0.50;0.50;;;;;;;4.58;100.00;100729.44;10416740;28;20059;-70
2024/01/06 04:58:41;;;;;;;0.70;0.70;;;;;;;4.57;100.00;100735.00;10416255;28;20112;-70
2024/01/06 05:03:41;;;;;;;5.13;4.70;;;;;;;4.61;100.00;100739.00;10416234;28;20055;-70
2024/01/06 05:08:44;;;;;;;4.47;3.58;;;;;;;4.55;100.00;100745.84;10416640;28;20120;-70
2024/01/06 05:13:44;;;;;;;6.25;3.95;;;;;;;4.48;100.00;100750.19;10414754;28;20030;-70
2024/01/06 05:18:45;;;;;;;4.68;4.25;;;;;;;4.56;100.00;100760.09;10430579;28;20108;-70
2024/01/06 05:23:45;;;;;;;5.80;5.22;;;;;;;4.59;100.00;100760.63;10414511;28;20121;-70
2024/01/06 05:28:46;;;;;;;5.22;4.13;;;;;;;4.53;100.00;100773.84;10415264;28;20049;-70
2024/01/06 05:33:46;;;;;;;13.82;4.05;;;;;;;4.47;100.00;100777.16;10413276;28;20033;-69
2024/01/06 05:38:47;;;;;;;6.45;4.18;;;;;;;4.53;100.00;100785.44;10415234;28;20384;-70
2024/01/06 05:43:47;;;;;;;6.05;4.28;;;;;;;4.46;100.00;100786.22;10414229;28;20120;-70
2024/01/06 05:48:48;;;;;;;5.28;3.90;;;;;;;4.40;100.00;100788.56;10414153;28;20118;-70
2024/01/06 05:53:48;;;;;;;3.45;3.15;;;;;;;4.43;100.00;100793.59;10414123;28;20037;-70
2024/01/06 05:58:49;;;;;;;4.22;3.90;;;;;;;4.40;100.00;100804.63;10413372;28;20034;-69
2024/01/06 06:03:50;;;;;;;4.70;4.30;;;;;;;4.36;100.00;100807.78;10413652;28;20029;-70
2024/01/06 06:08:50;;;;;;;9.35;4.72;;;;;;;4.31;100.00;100821.69;10413337;28;20151;-69
2024/01/06 06:13:51;;;;;;;7.53;4.40;;;;;;;4.28;100.00;100822.00;10417434;28;20111;-70
2024/01/06 06:18:51;;;;;;;3.88;3.30;;;;;;;4.30;100.00;100833.38;10414948;28;20061;-69
2024/01/06 06:23:52;;;;;;;3.72;3.42;;;;;;;4.38;100.00;100844.16;10412261;28;20485;-69
2024/01/06 06:28:52;;;;;;;10.80;4.30;;;;;;;4.36;100.00;100851.50;10412098;28;20464;-69
2024/01/06 06:33:52;;;;;;;11.63;4.45;;;;;;;4.34;100.00;100860.69;10413142;28;20343;-70
2024/01/06 06:38:54;;;;;;;10.20;4.28;;;;;;;4.31;100.00;100869.94;10412324;28;20033;-70
2024/01/06 06:43:54;;;;;;;5.50;5.03;;;;;;;4.35;100.00;100876.66;10413687;28;20021;-69
2024/01/06 06:48:55;;;;;;;5.35;3.25;;;;;;;4.24;100.00;100884.94;10412119;28;20063;-70
2024/01/06 06:53:55;;;;;;;7.82;4.07;;;;;;;4.27;100.00;100883.78;10413074;28;20347;-69
2024/01/06 06:58:55;;;;;;;5.45;3.97;;;;;;;4.26;100.00;100899.03;10412417;28;20060;-69
2024/01/06 07:03:56;;;;;;;8.93;6.13;;;;;;;4.27;100.00;100906.06;10410744;28;20037;-70
2024/01/06 07:08:56;;;;;;;5.40;4.50;;;;;;;4.29;100.00;100917.47;10412217;28;20025;-69
2024/01/06 07:13:57;;;;;;;7.88;4.95;;;;;;;4.30;100.00;100929.03;10411988;28;20095;-70
2024/01/06 07:18:57;;;;;;;6.15;4.55;;;;;;;4.33;100.00;100936.78;10412081;28;20455;-69
2024/01/06 07:23:58;;;;;;;18.98;5.88;;;;;;;4.28;100.00;100942.63;10412493;28;20061;-69
2024/01/06 07:28:58;;;;;;;9.75;5.60;;;;;;;4.22;100.00;100950.44;10411127;28;20076;-70
2024/01/06 07:33:58;;;;;;;5.22;4.70;;;;;;;4.20;100.00;100955.94;10411080;28;20465;-69
2024/01/06 07:38:59;;;;;;;5.70;5.20;;;;;;;4.24;100.00;100961.81;10411923;28;20029;-69
2024/01/06 07:44:01;;;;;;;5.13;4.72;;;;;;;4.23;100.00;100963.66;10410495;28;20478;-70
2024/01/06 07:49:01;;;;;;;5.45;4.97;;;;;;;4.24;100.00;100977.91;10434818;28;20033;-69
2024/01/06 07:54:02;;;;;;;7.43;3.90;;;;;;;4.18;100.00;100995.47;10435412;28;20030;-69
2024/01/06 07:59:02;;;;;;;5.03;3.40;;;;;;;4.14;100.00;100994.91;10419141;28;20036;-69
2024/01/06 08:04:03;;;;;;;3.80;3.00;;;;;;;4.16;100.00;101006.34;10418796;28;20477;-69
2024/01/06 08:09:03;;;;;;;3.97;3.05;;;;;;;4.26;100.00;101026.84;10419805;28;20070;-69
2024/01/06 08:14:04;;;;;;;4.55;3.78;;;;;;;4.28;100.00;101030.25;10417771;28;20025;-69
2024/01/06 08:19:04;;;;;;;7.22;5.25;;;;;;;4.30;100.00;101047.84;10421441;28;20099;-69
2024/01/06 08:24:05;;;;;;;5.65;5.05;;;;;;;4.33;100.00;101050.22;10424605;28;20108;-69
2024/01/06 08:29:05;;;;;;;5.18;4.68;;;;;;;4.40;100.00;101051.31;10423745;28;20060;-69
2024/01/06 08:34:07;;;;;;;4.40;4.07;;;;;;;4.40;100.00;101062.03;10417801;28;20109;-69
2024/01/06 08:39:08;;;;;;;4.13;3.53;;;;;;;4.41;100.00;101069.06;10418924;28;20115;-69
2024/01/06 08:44:09;;;;;;;5.60;3.95;;;;;;;4.48;100.00;101073.81;10415125;28;20440;-69
2024/01/06 08:49:09;;;;;;;5.88;4.32;;;;;;;4.54;100.00;101078.56;10416971;28;20026;-69
2024/01/06 08:54:09;;;;;;;4.30;3.45;;;;;;;4.52;100.00;101081.38;10418033;28;20061;-69
2024/01/06 08:59:10;;;;;;;10.32;4.75;;;;;;;4.39;100.00;101075.56;10416735;28;20455;-69
2024/01/06 09:04:12;;;;;;;6.47;3.45;;;;;;;4.24;100.00;101094.00;10417999;28;20037;-68
2024/01/06 09:09:13;;;;;;;7.53;5.28;;;;;;;4.23;100.00;101108.41;10417394;28;20073;-68
2024/01/06 09:14:13;;;;;;;4.47;3.55;;;;;;;4.25;100.00;101109.13;10432320;28;20413;-68
2024/01/06 09:19:14;;;;;;;4.47;2.97;;;;;;;4.36;100.00;101116.09;10416604;28;20064;-69
2024/01/06 09:24:14;;;;;;;3.28;2.58;;;;;;;4.48;100.00;101114.88;10421996;28;20124;-69
2024/01/06 09:29:16;;;;;;;4.65;4.10;;;;;;;4.64;100.00;101124.91;10419072;28;20204;-69
2024/01/06 09:34:16;;;;;;;7.05;3.28;;;;;;;4.76;100.00;101141.63;10419700;28;20052;-69
2024/01/06 09:39:17;;;;;;;3.58;3.28;;;;;;;4.91;100.00;101150.81;10417776;28;20029;-69
2024/01/06 09:44:18;;;;;;;5.50;3.45;;;;;;;5.18;100.00;101152.56;10413189;28;20048;-69
2024/01/06 09:49:21;;;;;;;4.53;4.13;;;;;;;5.44;100.00;101157.09;10413449;28;20032;-69
2024/01/06 09:54:24;;;;;;;3.65;3.25;;;;;;;5.56;100.00;101161.22;10414278;28;20037;-69
2024/01/06 09:59:24;;;;;;;5.60;3.75;;;;;;;5.46;100.00;101184.66;10413463;28;20110;-69
2024/01/06 10:04:24;;;;;;;4.78;1.92;;;;;;;5.46;100.00;101188.19;10413502;28;20026;-69
2024/01/06 10:09:28;;;;;;;3.30;2.80;;;;;;;5.41;100.00;101187.78;10414417;28;20045;-68
2024/01/06 10:14:29;;;;;;;3.42;2.60;;;;;;;5.31;100.00;101198.63;10413635;28;20037;-69
2024/01/06 10:19:29;;;;;;;3.35;2.75;;;;;;;5.26;100.00;101208.97;10413268;28;20111;-70
2024/01/06 10:24:31;;;;;;;2.17;2.08;;;;;;;5.02;100.00;101206.94;10412245;28;20119;-69
2024/01/06 10:29:32;;;;;;;3.15;2.85;;;;;;;4.71;100.00;101209.16;10411514;28;20067;-70
2024/01/06 10:34:32;;;;;;;3.83;2.72;;;;;;;4.93;100.00;101215.91;10415434;28;20033;-69
2024/01/06 10:39:33;;;;;;;3.65;3.20;;;;;;;5.05;100.00;101216.53;10432687;28;20030;-69
2024/01/06 10:44:33;;;;;;;7.03;2.50;;;;;;;5.10;100.00;101224.94;10427916;28;20041;-69
2024/01/06 10:49:34;;;;;;;3.80;3.42;;;;;;;4.84;100.00;101230.25;10411086;28;20021;-69
2024/01/06 10:54:36;;;;;;;8.48;3.20;;;;;;;4.81;100.00;101247.47;10412465;28;20116;-68
2024/01/06 10:59:37;;;;;;;4.63;2.03;;;;;;;4.72;100.00;101248.38;10426504;28;20483;-69
2024/01/06 11:04:37;;;;;;;4.07;2.88;;;;;;;4.84;100.00;101244.50;10412008;28;20043;-69
2024/01/06 11:09:39;;;;;;;2.75;2.58;;;;;;;4.96;100.00;101241.59;10427037;28;20084;-69
2024/01/06 11:14:39;;;;;;;3.08;2.78;;;;;;;5.01;100.00;101250.91;10426853;28;20399;-69
2024/01/06 11:19:40;;;;;;;4.13;3.40;;;;;;;5.11;100.00;101248.97;10414709;28;20057;-69
2024/01/06 11:24:41;;;;;;;5.47;3.40;;;;;;;5.23;100.00;101246.03;10420187;28;20464;-68
2024/01/06 11:29:43;;;;;;;3.22;2.97;;;;;;;5.33;100.00;101247.66;10418983;28;20049;-69
2024/01/06 11:34:48;;;;;;;4.10;3.55;;;;;;;5.46;100.00;101251.81;10419896;28;20022;-69
2024/01/06 11:39:49;;;;;;;4.82;3.40;;;;;;;5.48;100.00;101249.78;10419623;28;20490;-69
2024/01/06 11:44:50;;;;;;;3.47;3.28;;;;;;;5.44;100.00;101267.22;10418339;28;20029;-69
2024/01/06 11:49:53;;;;;;;7.80;3.92;;;;;;;5.42;100.00;101255.78;10417958;28;20080;-69
2024/01/06 11:54:54;;;;;;;3.45;3.15;;;;;;;5.31;100.00;101251.50;10392627;28;20042;-69
2024/01/06 11:59:54;;;;;;;3.10;2.90;;;;;;;5.35;100.00;101255.56;10418899;28;20029;-69
2024/01/06 12:04:55;;;;;;;3.10;2.90;;;;;;;5.39;100.00;101259.59;10417245;28;20025;-69
2024/01/06 12:10:02;;;;;;;2.72;2.45;;;;;;;5.25;100.00;101265.53;10418814;28;20057;-69
2024/01/06 12:15:03;;;;;;;2.10;1.92;;;;;;;5.13;100.00;101263.06;10419168;28;20029;-69
2024/01/06 12:20:03;;;;;;;3.40;3.10;;;;;;;5.30;100.00;101261.41;10417717;28;20037;-69
2024/01/06 12:25:06;;;;;;;3.22;2.35;;;;;;;5.39;100.00;101266.81;10418004;28;20077;-69
2024/01/06 12:30:15;;;;;;;3.80;2.15;;;;;;;5.48;100.00;101265.91;10417448;28;20058;-69
2024/01/06 12:35:16;;;;;;;1.92;1.83;;;;;;;5.55;100.00;101261.59;10418890;28;20065;-69
2024/01/06 12:40:17;;;;;;;3.00;1.80;;;;;;;5.73;100.00;101273.16;10434002;28;20084;-68
2024/01/06 12:45:17;;;;;;;1.90;1.55;;;;;;;5.75;100.00;101271.16;10418261;28;20064;-69
2024/01/06 12:50:18;;;;;;;2.33;2.15;;;;;;;5.72;100.00;101266.09;10421905;28;20037;-69
2024/01/06 12:55:18;;;;;;;3.35;1.77;;;;;;;5.73;100.00;101267.78;10431941;28;20079;-69
2024/01/06 13:00:19;;;;;;;2.03;1.83;;;;;;;5.69;100.00;101268.25;10415350;28;20120;-69
2024/01/06 13:05:19;;;;;;;1.23;1.20;;;;;;;5.48;100.00;101292.75;10416858;28;20087;-69
2024/01/06 13:10:20;;;;;;;2.75;2.55;;;;;;;5.38;100.00;101292.84;10414851;28;20061;-69
2024/01/06 13:15:21;;;;;;;1.73;1.30;;;;;;;5.32;100.00;101293.44;10415920;28;20120;-70
2024/01/06 13:20:21;;;;;;;5.93;2.45;;;;;;;5.32;100.00;101288.91;10416457;28;20034;-70
2024/01/06 13:25:22;;;;;;;2.70;2.17;;;;;;;5.38;100.00;101282.09;10415261;28;20439;-69
2024/01/06 13:30:22;;;;;;;4.45;2.20;;;;;;;5.57;100.00;101286.47;10414801;28;20064;-70
2024/01/06 13:35:24;;;;;;;2.67;2.45;;;;;;;5.61;100.00;101290.50;10413788;28;20120;-69
2024/01/06 13:40:25;;;;;;;3.08;2.75;;;;;;;5.56;100.00;101303.59;10415786;28;20434;-70
2024/01/06 13:45:26;;;;;;;1.50;1.25;;;;;;;5.48;100.00;101298.97;10412255;28;20182;-70
2024/01/06 13:50:27;;;;;;;2.47;1.88;;;;;;;5.38;100.00;101310.81;10414871;28;20116;-71
2024/01/06 13:55:27;;;;;;;2.33;1.88;;;;;;;5.43;100.00;101314.72;10414669;28;20044;-70
2024/01/06 14:00:27;;;;;;;4.53;2.17;;;;;;;5.51;100.00;101320.16;10429228;28;20146;-69
2024/01/06 14:05:28;;;;;;;3.35;2.70;;;;;;;5.55;100.00;101334.13;10418526;28;20025;-69
2024/01/06 14:10:29;;;;;;;1.92;1.50;;;;;;;5.35;100.00;101328.91;10420811;28;20149;-70
2024/01/06 14:15:32;;;;;;;5.10;2.53;;;;;;;5.32;100.00;101342.63;10414765;28;20381;-73
2024/01/06 14:20:37;;;;;;;2.40;2.00;;;;;;;5.20;100.00;101343.88;10413371;28;20112;-71
2024/01/06 14:25:38;;;;;;;1.38;1.35;;;;;;;5.11;100.00;101344.78;10413599;28;20406;-70
2024/01/06 14:30:38;;;;;;;5.68;1.88;;;;;;;5.03;100.00;101355.41;10413215;28;20049;-70
2024/01/06 14:35:38;;;;;;;3.03;2.05;;;;;;;5.05;100.00;101366.84;10412863;28;20030;-70
2024/01/06 14:40:39;;;;;;;2.38;2.17;;;;;;;4.89;100.00;101375.56;10412833;28;20057;-70
2024/01/06 14:45:39;;;;;;;2.15;1.98;;;;;;;4.90;100.00;101380.75;10413324;28;20037;-69
2024/01/06 14:50:40;;;;;;;3.05;2.75;;;;;;;4.90;100.00;101386.13;10411934;28;20069;-71
2024/01/06 14:55:40;;;;;;;2.65;2.10;;;;;;;4.76;100.00;101383.09;10412065;28;20091;-69
2024/01/06 15:00:40;;;;;;;1.73;1.58;;;;;;;4.54;100.00;101392.34;10411656;28;20041;-70
2024/01/06 15:05:41;;;;;;;2.13;1.75;;;;;;;4.38;100.00;101401.00;10431949;28;20457;-70
2024/01/06 15:10:41;;;;;;;2.30;2.10;;;;;;;4.23;100.00;101410.50;10406369;28;20045;-69
2024/01/06 15:15:42;;;;;;;5.28;2.15;;;;;;;4.17;100.00;101410.06;10409867;28;20068;-71
2024/01/06 15:20:42;;;;;;;10.25;2.30;;;;;;;4.25;100.00;101417.41;10411603;28;20131;-69
2024/01/06 15:25:42;;;;;;;5.53;2.40;;;;;;;4.27;100.00;101423.44;10411110;28;20060;-69
2024/01/06 15:30:43;;;;;;;2.00;1.90;;;;;;;4.20;100.00;101433.06;10409349;28;20049;-74
2024/01/06 15:35:43;;;;;;;5.00;3.17;;;;;;;4.09;100.00;101442.09;10410942;28;20052;-69
2024/01/06 15:40:44;;;;;;;2.90;2.60;;;;;;;4.13;100.00;101445.34;10426218;28;20064;-73
2024/01/06 15:45:44;;;;;;;4.63;2.70;;;;;;;4.22;100.00;101454.38;10411423;28;20196;-69
2024/01/06 15:50:44;;;;;;;4.68;3.35;;;;;;;4.22;100.00;101459.75;10410185;28;20112;-69
2024/01/06 15:55:45;;;;;;;3.45;2.58;;;;;;;4.23;100.00;101470.31;10411819;28;20026;-69
2024/01/06 16:00:45;;;;;;;6.47;3.72;;;;;;;4.16;100.00;101467.34;10411880;28;20464;-68
2024/01/06 16:05:46;;;;;;;3.42;3.17;;;;;;;4.05;100.00;101477.34;10412471;28;20175;-68
2024/01/06 16:10:46;;;;;;;2.47;2.38;;;;;;;3.80;100.00;101476.94;10417415;28;20040;-69
2024/01/06 16:15:47;;;;;;;4.30;3.30;;;;;;;3.61;100.00;101484.94;10419238;28;20060;-69
2024/01/06 16:20:47;;;;;;;6.00;2.97;;;;;;;3.54;100.00;101486.44;10417086;28;20037;-69
2024/01/06 16:25:47;;;;;;;6.25;3.72;;;;;;;3.55;100.00;101491.69;10419098;28;20411;-68
2024/01/06 16:30:48;;;;;;;2.63;2.42;;;;;;;3.60;100.00;101492.09;10417383;28;20054;-68
2024/01/06 16:35:48;;;;;;;2.95;2.63;;;;;;;3.62;100.00;101500.03;10417466;28;20041;-69
2024/01/06 16:40:49;;;;;;;5.72;3.00;;;;;;;3.69;100.00;101501.16;10417326;28;20083;-69
2024/01/06 16:45:49;;;;;;;4.00;2.95;;;;;;;3.68;100.00;101504.81;10415864;28;20358;-69
2024/01/06 16:50:50;;;;;;;4.05;3.05;;;;;;;3.58;100.00;101506.63;10417048;28;20123;-68
2024/01/06 16:55:51;;;;;;;4.07;3.67;;;;;;;3.48;100.00;101515.50;10415874;28;20029;-69
2024/01/06 17:00:52;;;;;;;4.95;3.30;;;;;;;3.33;100.00;101524.88;10416519;28;20037;-69
2024/01/06 17:05:52;;;;;;;4.18;3.80;;;;;;;3.19;100.00;101515.38;10416135;28;20045;-68
2024/01/06 17:10:52;;;;;;;13.60;3.88;;;;;;;3.04;100.00;101527.41;10414974;28;20029;-69
2024/01/06 17:15:53;;;;;;;3.92;3.53;;;;;;;2.87;100.00;101536.91;10420935;28;20021;-68
2024/01/06 17:20:53;;;;;;;4.75;3.60;;;;;;;2.83;100.00;101546.16;10416195;28;20381;-68
2024/01/06 17:25:54;;;;;;;4.95;4.50;;;;;;;2.75;100.00;101543.31;10416777;28;20033;-69
2024/01/06 17:30:55;;;;;;;7.30;4.47;;;;;;;2.71;100.00;101552.56;10416541;28;20061;-68
2024/01/06 17:35:55;;;;;;;5.03;4.55;;;;;;;2.64;100.00;101552.22;10415593;28;20037;-69
2024/01/06 17:40:56;;;;;;;6.65;4.05;;;;;;;2.53;100.00;101555.81;10415320;28;20389;-69
2024/01/06 17:45:56;;;;;;;5.72;5.00;;;;;;;2.45;100.00;101571.63;10415115;28;20362;-69
2024/01/06 17:50:56;;;;;;;4.82;4.43;;;;;;;2.37;100.00;101568.78;10414694;28;20040;-68
2024/01/06 17:55:57;;;;;;;5.55;5.05;;;;;;;2.36;100.00;101575.06;10414576;28;20552;-68
2024/01/06 18:00:58;;;;;;;6.10;5.15;;;;;;;2.29;100.00;101584.59;10414301;28;20042;-68
2024/01/06 18:05:58;;;;;;;5.20;4.40;;;;;;;2.22;100.00;101584.25;10414962;28;20045;-68
2024/01/06 18:10:59;;;;;;;6.35;5.75;;;;;;;2.18;100.00;101581.97;10413908;28;20105;-69
2024/01/06 18:15:59;;;;;;;7.15;5.57;;;;;;;2.19;100.00;101591.66;10414068;28;20449;-68
2024/01/06 18:20:59;;;;;;;14.38;5.85;;;;;;;2.12;100.00;101594.00;10414122;28;20072;-68
2024/01/06 18:26:00;;;;;;;12.48;6.97;;;;;;;2.08;100.00;101593.41;10412775;28;20441;-69
2024/01/06 18:31:00;;;;;;;7.97;7.25;;;;;;;1.96;100.00;101597.06;10412438;28;20053;-68
2024/01/06 18:36:01;;;;;;;15.60;8.13;;;;;;;1.94;100.00;101600.81;10412483;28;20488;-68
2024/01/06 18:41:01;;;;;;;7.57;6.03;;;;;;;1.92;100.00;101600.13;10413311;28;20034;-68
2024/01/06 18:46:02;;;;;;;7.50;6.43;;;;;;;1.89;100.00;101593.19;10413156;28;20041;-68
2024/01/06 18:51:02;;;;;;;7.82;6.60;;;;;;;1.88;100.00;101595.97;10412991;28;20113;-68
2024/01/06 18:56:03;;;;;;;9.93;6.13;;;;;;;1.82;100.00;101610.69;10413739;28;20540;-68
2024/01/06 19:01:03;;;;;;;8.15;7.15;;;;;;;1.75;100.00;101609.47;10411883;28;20465;-68
2024/01/06 19:06:04;;;;;;;10.25;5.95;;;;;;;1.71;100.00;101616.03;10412578;28;20091;-68
2024/01/06 19:11:04;;;;;;;6.72;6.13;;;;;;;1.61;100.00;101616.75;10411853;28;20352;-68
2024/01/06 19:16:05;;;;;;;9.00;7.28;;;;;;;1.61;100.00;101626.59;10416288;28;20029;-68
2024/01/06 19:21:06;;;;;;;10.52;7.05;;;;;;;1.63;100.00;101630.84;10412463;28;20381;-68
2024/01/06 19:26:07;;;;;;;10.77;8.27;;;;;;;1.63;100.00;101635.34;10412477;28;20065;-69
2024/01/06 19:31:07;;;;;;;13.35;6.88;;;;;;;1.66;100.00;101634.22;10411944;28;20460;-69
2024/01/06 19:36:09;;;;;;;9.10;7.25;;;;;;;1.77;100.00;101643.09;10411513;28;20143;-68
2024/01/06 19:41:10;;;;;;;7.10;6.30;;;;;;;1.96;100.00;101638.97;10420845;28;20112;-69
2024/01/06 19:46:12;;;;;;;7.63;6.53;;;;;;;2.20;100.00;101644.13;10428551;28;20037;-68
2024/01/06 19:51:15;;;;;;;7.50;6.72;;;;;;;2.33;100.00;101651.03;10422766;28;20029;-68
2024/01/06 19:56:15;;;;;;;10.35;6.60;;;;;;;2.46;100.00;101658.91;10418612;28;20036;-69
2024/01/06 20:01:16;;;;;;;8.32;6.63;;;;;;;2.53;100.00;101669.94;10434177;28;20021;-68
2024/01/06 20:06:16;;;;;;;8.23;6.95;;;;;;;2.59;100.00;101664.09;10419191;28;20042;-68
2024/01/06 20:11:17;;;;;;;6.13;5.57;;;;;;;2.67;100.00;101668.78;10417422;28;20468;-69
2024/01/06 20:16:17;;;;;;;11.32;5.40;;;;;;;2.71;100.00;101673.75;10419412;28;20037;-69
2024/01/06 20:21:18;;;;;;;6.82;6.22;;;;;;;2.70;100.00;101677.41;10433050;28;20037;-69
2024/01/06 20:26:18;;;;;;;7.57;6.55;;;;;;;2.68;100.00;101675.81;10418125;28;20103;-69
2024/01/06 20:31:19;;;;;;;9.10;6.60;;;;;;;2.79;100.00;101679.31;10418750;28;20102;-69
2024/01/06 20:36:19;;;;;;;7.82;6.43;;;;;;;2.79;100.00;101681.13;10418614;28;20045;-69
2024/01/06 20:41:20;;;;;;;7.63;6.25;;;;;;;2.76;100.00;101679.56;10432908;28;20109;-69
2024/01/06 20:46:22;;;;;;;5.95;5.40;;;;;;;2.74;100.00;101692.22;10433804;28;20039;-69
2024/01/06 20:51:22;;;;;;;8.77;5.65;;;;;;;2.80;100.00;101685.50;10417491;28;20037;-68
2024/01/06 20:56:22;;;;;;;7.28;6.57;;;;;;;2.80;100.00;101689.03;10417419;28;20457;-68
2024/01/06 21:01:23;;;;;;;6.00;5.50;;;;;;;2.72;100.00;101698.69;10416690;28;20081;-69
2024/01/06 21:06:23;;;;;;;5.15;4.65;;;;;;;2.67;100.00;101690.16;10416922;28;20037;-69
2024/01/06 21:11:23;;;;;;;5.40;4.90;;;;;;;2.67;100.00;101690.16;10432799;28;20464;-69
2024/01/06 21:16:24;;;;;;;5.05;4.55;;;;;;;2.69;100.00;101691.75;10420795;28;20053;-68
2024/01/06 21:21:24;;;;;;;6.30;5.25;;;;;;;2.75;100.00;101687.72;10416402;28;20065;-68
2024/01/06 21:26:26;;;;;;;5.60;4.20;;;;;;;2.73;100.00;101692.34;10415404;28;20034;-69
2024/01/06 21:31:27;;;;;;;5.28;4.60;;;;;;;2.73;100.00;101690.50;10414649;28;20049;-69
2024/01/06 21:36:28;;;;;;;6.07;5.50;;;;;;;2.78;100.00;101690.16;10415228;28;20112;-69
2024/01/06 21:41:28;;;;;;;6.55;5.75;;;;;;;2.76;100.00;101694.75;10416276;28;20368;-69
2024/01/06 21:46:29;;;;;;;8.98;6.20;;;;;;;2.66;100.00;101699.19;10415311;28;20037;-68
2024/01/06 21:51:29;;;;;;;6.22;5.63;;;;;;;2.68;100.00;101698.09;10414539;28;20037;-69
2024/01/06 21:56:29;;;;;;;10.55;5.07;;;;;;;2.65;100.00;101690.31;10414785;28;20087;-68
2024/01/06 22:01:30;;;;;;;6.13;5.35;;;;;;;2.56;100.00;101707.97;10414309;28;20036;-69
2024/01/06 22:06:30;;;;;;;5.63;5.13;;;;;;;2.58;100.00;101710.50;10413338;28;20103;-70
2024/01/06 22:11:31;;;;;;;6.82;6.25;;;;;;;2.54;100.00;101709.91;10412425;28;20540;-69
2024/01/06 22:16:31;;;;;;;5.55;4.65;;;;;;;2.49;100.00;101725.47;10414404;28;20037;-68
2024/01/06 22:21:31;;;;;;;10.57;6.00;;;;;;;2.49;100.00;101727.28;10414534;28;20052;-69
2024/01/06 22:26:32;;;;;;;6.50;5.15;;;;;;;2.35;100.00;101732.91;10413811;28;20061;-68
2024/01/06 22:31:32;;;;;;;5.63;5.13;;;;;;;2.25;100.00;101738.16;10412974;28;20361;-69
2024/01/06 22:36:34;;;;;;;10.20;6.82;;;;;;;2.13;100.00;101747.97;10413354;28;20037;-68
2024/01/06 22:41:34;;;;;;;7.85;5.88;;;;;;;1.99;100.00;101749.06;10413183;28;20029;-69
2024/01/06 22:46:35;;;;;;;6.82;5.72;;;;;;;1.92;100.00;101750.53;10413037;28;20384;-68
2024/01/06 22:51:35;;;;;;;6.18;5.57;;;;;;;1.89;100.00;101752.59;10413654;28;20025;-68
2024/01/06 22:56:36;;;;;;;7.30;6.60;;;;;;;1.94;100.00;101761.94;10413146;28;20037;-69
2024/01/06 23:01:36;;;;;;;9.27;7.57;;;;;;;1.87;100.00;101776.75;10411315;28;20060;-69